sensor_id;sensor_type;location;lat;lon;timestamp;pressure;altitude;pressure_sealevel;temperature;humidity
20003;BME280;10162;41.600;23.806;2023-05-08T08:54:32;95261.06;;;21.50;58.93
20003;BME280;10162;41.600;23.806;2023-05-08T09:14:53;95225.38;;;22.64;54.60
20003;BME280;10162;41.600;23.806;2023-05-08T09:17:27;95206.16;;;22.67;53.98
20003;BME280;10162;41.600;23.806;2023-05-08T14:09:44;95148.13;;;22.49;80.71
20003;BME280;10162;41.600;23.806;2023-05-08T14:16:22;95155.84;;;22.25;79.86
20003;BME280;10162;41.600;23.806;2023-05-08T17:15:17;95250.53;;;16.59;100.00
20003;BME280;10162;41.600;23.806;2023-05-08T17:17:43;95235.09;;;16.09;100.00
20003;BME280;10162;41.600;23.806;2023-05-08T17:20:13;95234.00;;;16.28;100.00
20003;BME280;10162;41.600;23.806;2023-05-08T17:23:12;95264.59;;;16.71;100.00
20003;BME280;10162;41.600;23.806;2023-05-08T17:25:39;95266.78;;;16.62;100.00
20003;BME280;10162;41.600;23.806;2023-05-08T17:28:05;95230.63;;;16.09;100.00
20003;BME280;10162;41.600;23.806;2023-05-08T17:30:31;95255.78;;;16.24;100.00
20003;BME280;10162;41.600;23.806;2023-05-08T17:33:12;95251.09;;;16.37;100.00
20003;BME280;10162;41.600;23.806;2023-05-08T17:35:38;95261.38;;;16.16;100.00
20003;BME280;10162;41.600;23.806;2023-05-08T17:38:04;95267.97;;;15.95;100.00
20003;BME280;10162;41.600;23.806;2023-05-08T17:40:30;95260.38;;;15.87;100.00
20003;BME280;10162;41.600;23.806;2023-05-08T17:46:17;95263.56;;;15.77;100.00
20003;BME280;10162;41.600;23.806;2023-05-08T17:48:43;95256.03;;;15.62;100.00
20003;BME280;10162;41.600;23.806;2023-05-08T17:54:10;95291.44;;;15.85;100.00
20003;BME280;10162;41.600;23.806;2023-05-08T17:56:36;95275.16;;;15.58;100.00
20003;BME280;10162;41.600;23.806;2023-05-08T17:59:02;95261.03;;;15.52;100.00
20003;BME280;10162;41.600;23.806;2023-05-08T18:01:42;95279.19;;;15.60;100.00
20003;BME280;10162;41.600;23.806;2023-05-08T18:04:09;95273.81;;;15.67;100.00
20003;BME280;10162;41.600;23.806;2023-05-08T18:06:35;95265.53;;;15.45;100.00
20003;BME280;10162;41.600;23.806;2023-05-08T18:12:33;95293.00;;;15.38;100.00
20003;BME280;10162;41.600;23.806;2023-05-08T18:14:59;95313.69;;;15.34;100.00
20003;BME280;10162;41.600;23.806;2023-05-08T18:17:26;95306.00;;;15.32;100.00
20003;BME280;10162;41.600;23.806;2023-05-08T18:19:55;95301.53;;;15.51;100.00
20003;BME280;10162;41.600;23.806;2023-05-08T18:22:23;95298.56;;;15.48;100.00
20003;BME280;10162;41.600;23.806;2023-05-08T18:24:49;95318.44;;;15.44;100.00
20003;BME280;10162;41.600;23.806;2023-05-08T18:27:14;95295.78;;;15.24;100.00
20003;BME280;10162;41.600;23.806;2023-05-08T18:29:40;95293.22;;;15.18;100.00
20003;BME280;10162;41.600;23.806;2023-05-08T18:32:31;95318.59;;;15.30;100.00
20003;BME280;10162;41.600;23.806;2023-05-08T18:34:57;95320.00;;;15.15;100.00
20003;BME280;10162;41.600;23.806;2023-05-08T18:37:23;95328.63;;;15.22;100.00
20003;BME280;10162;41.600;23.806;2023-05-08T18:39:50;95311.25;;;14.96;100.00
20003;BME280;10162;41.600;23.806;2023-05-08T18:45:20;95312.88;;;14.72;100.00
20003;BME280;10162;41.600;23.806;2023-05-08T18:47:46;95339.28;;;15.09;100.00
20003;BME280;10162;41.600;23.806;2023-05-08T18:50:12;95349.22;;;15.07;100.00
20003;BME280;10162;41.600;23.806;2023-05-08T18:55:27;95373.19;;;15.23;100.00
20003;BME280;10162;41.600;23.806;2023-05-08T18:57:53;95337.44;;;14.91;100.00
20003;BME280;10162;41.600;23.806;2023-05-08T19:00:20;95355.25;;;15.14;100.00
20003;BME280;10162;41.600;23.806;2023-05-08T19:05:59;95369.81;;;14.92;100.00
20003;BME280;10162;41.600;23.806;2023-05-08T19:08:24;95361.75;;;14.86;100.00
20003;BME280;10162;41.600;23.806;2023-05-08T19:13:42;95370.91;;;14.84;100.00
20003;BME280;10162;41.600;23.806;2023-05-08T19:16:08;95361.72;;;14.68;100.00
20003;BME280;10162;41.600;23.806;2023-05-08T19:18:36;95343.41;;;14.80;100.00
20003;BME280;10162;41.600;23.806;2023-05-08T19:21:07;95360.69;;;14.94;100.00
20003;BME280;10162;41.600;23.806;2023-05-08T19:23:33;95366.53;;;14.71;100.00
20003;BME280;10162;41.600;23.806;2023-05-08T19:25:59;95359.16;;;14.55;100.00
20003;BME280;10162;41.600;23.806;2023-05-08T19:28:33;95356.44;;;14.37;100.00
20003;BME280;10162;41.600;23.806;2023-05-08T19:31:01;95345.03;;;14.50;100.00
20003;BME280;10162;41.600;23.806;2023-05-08T19:33:27;95355.31;;;14.58;100.00
20003;BME280;10162;41.600;23.806;2023-05-08T19:35:54;95345.69;;;14.45;100.00
20003;BME280;10162;41.600;23.806;2023-05-08T19:38:20;95359.59;;;14.77;100.00
20003;BME280;10162;41.600;23.806;2023-05-08T19:43:51;95346.72;;;14.94;100.00
20003;BME280;10162;41.600;23.806;2023-05-08T19:46:16;95352.41;;;14.91;100.00
20003;BME280;10162;41.600;23.806;2023-05-08T19:48:44;95354.28;;;14.83;100.00
20003;BME280;10162;41.600;23.806;2023-05-08T19:54:38;95348.16;;;14.65;100.00
20003;BME280;10162;41.600;23.806;2023-05-08T19:57:03;95327.16;;;14.58;100.00
20003;BME280;10162;41.600;23.806;2023-05-08T19:59:29;95320.03;;;14.40;100.00
20003;BME280;10162;41.600;23.806;2023-05-08T20:01:56;95343.81;;;14.52;100.00
20003;BME280;10162;41.600;23.806;2023-05-08T20:04:24;95332.59;;;14.63;100.00
20003;BME280;10162;41.600;23.806;2023-05-08T20:06:49;95323.47;;;14.66;100.00
20003;BME280;10162;41.600;23.806;2023-05-08T20:09:15;95316.16;;;14.36;100.00
20003;BME280;10162;41.600;23.806;2023-05-08T20:14:41;95315.66;;;14.21;100.00
20003;BME280;10162;41.600;23.806;2023-05-08T20:17:07;95322.66;;;14.34;100.00
20003;BME280;10162;41.600;23.806;2023-05-08T20:19:34;95317.06;;;14.24;100.00
20003;BME280;10162;41.600;23.806;2023-05-08T20:22:04;95301.81;;;14.39;100.00
20003;BME280;10162;41.600;23.806;2023-05-08T20:24:30;95326.59;;;14.56;100.00
20003;BME280;10162;41.600;23.806;2023-05-08T20:26:56;95310.09;;;14.36;100.00
20003;BME280;10162;41.600;23.806;2023-05-08T20:29:22;95304.44;;;14.39;100.00
20003;BME280;10162;41.600;23.806;2023-05-08T20:31:58;95315.34;;;14.36;100.00
20003;BME280;10162;41.600;23.806;2023-05-08T20:34:25;95314.78;;;14.34;100.00
20003;BME280;10162;41.600;23.806;2023-05-08T20:36:51;95326.38;;;14.20;100.00
20003;BME280;10162;41.600;23.806;2023-05-08T20:39:17;95323.78;;;14.13;100.00
20003;BME280;10162;41.600;23.806;2023-05-08T20:45:37;95317.25;;;14.29;100.00
20003;BME280;10162;41.600;23.806;2023-05-08T20:48:04;95308.66;;;13.77;100.00
20003;BME280;10162;41.600;23.806;2023-05-08T20:50:29;95320.13;;;13.83;100.00
20003;BME280;10162;41.600;23.806;2023-05-08T20:56:50;95313.22;;;13.88;100.00
20003;BME280;10162;41.600;23.806;2023-05-08T20:59:16;95305.88;;;13.59;100.00
20003;BME280;10162;41.600;23.806;2023-05-08T21:04:41;95318.66;;;13.55;100.00
20003;BME280;10162;41.600;23.806;2023-05-08T21:07:07;95305.59;;;13.22;100.00
20003;BME280;10162;41.600;23.806;2023-05-08T21:09:34;95309.00;;;13.43;100.00
20003;BME280;10162;41.600;23.806;2023-05-08T21:12:10;95307.56;;;13.47;100.00
20003;BME280;10162;41.600;23.806;2023-05-08T21:14:37;95318.25;;;13.45;100.00
20003;BME280;10162;41.600;23.806;2023-05-08T21:17:03;95300.97;;;13.24;100.00
20003;BME280;10162;41.600;23.806;2023-05-08T21:19:30;95326.16;;;13.39;100.00
20003;BME280;10162;41.600;23.806;2023-05-08T21:25:50;95311.63;;;13.43;100.00
20003;BME280;10162;41.600;23.806;2023-05-08T21:28:17;95312.34;;;13.56;100.00
20003;BME280;10162;41.600;23.806;2023-05-08T21:30:43;95312.00;;;13.46;100.00
20003;BME280;10162;41.600;23.806;2023-05-08T21:33:10;95326.94;;;13.46;100.00
20003;BME280;10162;41.600;23.806;2023-05-08T21:35:40;95319.25;;;13.44;100.00
20003;BME280;10162;41.600;23.806;2023-05-08T21:38:06;95320.16;;;13.18;100.00
20003;BME280;10162;41.600;23.806;2023-05-08T21:40:33;95334.47;;;13.29;100.00
20003;BME280;10162;41.600;23.806;2023-05-08T21:43:00;95314.09;;;13.11;100.00
20003;BME280;10162;41.600;23.806;2023-05-08T21:45:30;95323.31;;;13.47;100.00
20003;BME280;10162;41.600;23.806;2023-05-08T21:47:57;95308.00;;;13.37;100.00
20003;BME280;10162;41.600;23.806;2023-05-08T21:50:22;95321.16;;;13.24;100.00
20003;BME280;10162;41.600;23.806;2023-05-08T21:52:57;95316.94;;;13.03;100.00
20003;BME280;10162;41.600;23.806;2023-05-08T21:55:24;95307.47;;;12.82;100.00
20003;BME280;10162;41.600;23.806;2023-05-08T21:57:50;95329.88;;;12.92;100.00
20003;BME280;10162;41.600;23.806;2023-05-08T22:00:17;95333.28;;;12.99;100.00
20003;BME280;10162;41.600;23.806;2023-05-08T22:06:39;95309.69;;;12.86;100.00
20003;BME280;10162;41.600;23.806;2023-05-08T22:09:08;95315.91;;;13.17;100.00
20003;BME280;10162;41.600;23.806;2023-05-08T22:15:28;95303.03;;;12.96;100.00
20003;BME280;10162;41.600;23.806;2023-05-08T22:17:55;95307.03;;;13.18;100.00
20003;BME280;10162;41.600;23.806;2023-05-08T22:20:21;95310.28;;;13.20;100.00
20003;BME280;10162;41.600;23.806;2023-05-08T22:25:54;95305.88;;;12.68;100.00
20003;BME280;10162;41.600;23.806;2023-05-08T22:28:20;95317.75;;;12.91;100.00
20003;BME280;10162;41.600;23.806;2023-05-08T22:31:15;95324.81;;;12.97;100.00
20003;BME280;10162;41.600;23.806;2023-05-08T22:33:42;95302.66;;;12.73;100.00
20003;BME280;10162;41.600;23.806;2023-05-08T22:36:08;95314.31;;;12.97;100.00
20003;BME280;10162;41.600;23.806;2023-05-08T22:38:35;95314.31;;;12.97;100.00
20003;BME280;10162;41.600;23.806;2023-05-08T22:44:11;95319.97;;;13.13;100.00
20003;BME280;10162;41.600;23.806;2023-05-08T22:46:37;95291.72;;;12.82;100.00
20003;BME280;10162;41.600;23.806;2023-05-08T22:49:04;95305.84;;;12.88;100.00
20003;BME280;10162;41.600;23.806;2023-05-08T22:54:37;95285.91;;;12.74;100.00
20003;BME280;10162;41.600;23.806;2023-05-08T22:57:03;95309.28;;;12.89;100.00
20003;BME280;10162;41.600;23.806;2023-05-08T22:59:29;95300.59;;;12.81;100.00
20003;BME280;10162;41.600;23.806;2023-05-08T23:05:48;95291.69;;;13.02;100.00
20003;BME280;10162;41.600;23.806;2023-05-08T23:08:14;95300.78;;;13.06;100.00
20003;BME280;10162;41.600;23.806;2023-05-08T23:10:40;95294.75;;;12.93;100.00
20003;BME280;10162;41.600;23.806;2023-05-08T23:13:06;95303.00;;;13.03;100.00
20003;BME280;10162;41.600;23.806;2023-05-08T23:15:31;95307.22;;;13.17;100.00
20003;BME280;10162;41.600;23.806;2023-05-08T23:17:57;95270.94;;;12.88;100.00
20003;BME280;10162;41.600;23.806;2023-05-08T23:20:23;95272.34;;;12.83;100.00
20003;BME280;10162;41.600;23.806;2023-05-08T23:25:53;95286.84;;;12.99;100.00
20003;BME280;10162;41.600;23.806;2023-05-08T23:28:19;95291.13;;;12.87;100.00
20003;BME280;10162;41.600;23.806;2023-05-08T23:31:22;95298.78;;;12.95;100.00
20003;BME280;10162;41.600;23.806;2023-05-08T23:33:48;95267.72;;;12.86;100.00
20003;BME280;10162;41.600;23.806;2023-05-08T23:36:14;95267.31;;;12.82;100.00
20003;BME280;10162;41.600;23.806;2023-05-08T23:38:41;95273.34;;;12.82;100.00
20003;BME280;10162;41.600;23.806;2023-05-08T23:44:18;95271.59;;;12.57;100.00
20003;BME280;10162;41.600;23.806;2023-05-08T23:46:44;95289.91;;;12.76;100.00
20003;BME280;10162;41.600;23.806;2023-05-08T23:49:11;95253.22;;;12.57;100.00
20003;BME280;10162;41.600;23.806;2023-05-08T23:55:33;95275.97;;;12.96;100.00
20003;BME280;10162;41.600;23.806;2023-05-08T23:57:59;95271.16;;;12.79;100.00
